Home > Products > Valid Products > TAF

000
FTUS43 KUNR 272300
TAFGCC
TAF
KGCC 272320Z 2800/2824 17011KT P6SM BKN200
     FM281000 33010KT P6SM BKN025=



000
FTUS43 KUNR 272300
TAFRAP
TAF
KRAP 272320Z 2800/2824 17016KT P6SM BKN035
     FM280300 16006KT P6SM BKN200
     FM281400 35017KT P6SM SCT035 BKN080=



000
FTUS43 KUNR 272000 AAA
TAFRAP
TAF AMD
KRAP 272043Z 2721/2818 17016G25KT P6SM BKN035
     FM272300 15011KT P6SM BKN035
     FM280400 16006KT P6SM BKN100
     FM281300 33015KT P6SM SCT035 BKN080=



000
FTUS43 KUNR 272000 AAA
TAFRAP
TAF AMD
KRAP 272043Z 2721/2818 17016G25KT P6SM BKN035
     FM272300 15011KT P6SM BKN035
     FM280400 16006KT P6SM BKN100
     FM281300 33015KT P6SM SCT035 BKN080=



000
FTUS43 KUNR 271700
TAFRAP
TAF
KRAP 271721Z 2718/2818 17016G25KT P6SM SCT020
     FM272300 15011KT P6SM SCT035
     FM280400 16006KT P6SM BKN100
     FM281300 33015KT P6SM SCT035 BKN080=



000
FTUS43 KUNR 271700
TAFGCC
TAF
KGCC 271721Z 2718/2818 18018G28KT P6SM BKN008
     FM271900 18018G28KT P6SM SCT008
     FM272200 17014KT P6SM SCT250
     FM280600 26006KT P6SM SCT025 BKN060
     FM280900 33008KT P6SM BKN025=



000
FTUS43 KUNR 271100
TAFRAP
TAF
KRAP 271120Z 2712/2812 17014KT P6SM SKC
     FM272300 15011KT P6SM SCT035
     FM280400 16006KT P6SM SCT250=



000
FTUS43 KUNR 271100
TAFGCC
TAF
KGCC 271120Z 2712/2812 17014KT P6SM SCT040
     FM271500 18018G28KT P6SM SKC
     FM272200 17014KT P6SM SCT250
     FM280600 26006KT P6SM OVC025
     FM280900 33005KT P6SM OVC010=



000
FTUS43 KUNR 271000 AAA
TAFGCC
TAF AMD
KGCC 271035Z 2711/2806 16014KT P6SM SCT060=



000
FTUS43 KUNR 271000 AAA
TAFGCC
TAF AMD
KGCC 271035Z 2711/2806 16014KT P6SM SCT060=



000
FTUS43 KUNR 270500
TAFRAP
TAF
KRAP 270520Z 2706/2806 VRB05KT P6SM SKC
     FM271000 14010KT P6SM SKC
     FM271700 17016G26KT P6SM SKC=



000
FTUS43 KUNR 270500
TAFGCC
TAF
KGCC 270520Z 2706/2806 17012KT P6SM SKC
     FM271000 18018G28KT P6SM SKC=



000
FTUS43 KUNR 270500
TAFRAP
TAF
KRAP 270520Z 2706/2806 VRB05KT P6SM SKC
     FM271000 14010KT P6SM SKC
     FM271700 17016G26KT P6SM SKC=



000
FTUS43 KUNR 270500
TAFGCC
TAF
KGCC 270520Z 2706/2806 17012KT P6SM SKC
     FM271000 18018G28KT P6SM SKC=



000
FTUS43 KUNR 262300
TAFGCC
TAF
KGCC 262320Z 2700/2724 VRB05KT P6SM SKC
     FM270500 17012KT P6SM SKC
     FM271000 18018G28KT P6SM SKC=



000
FTUS43 KUNR 262300
TAFRAP
TAF
KRAP 262320Z 2700/2724 VRB05KT P6SM SKC
     FM271000 14010KT P6SM SKC
     FM271700 17016G26KT P6SM SKC=



000
FTUS43 KUNR 262300
TAFGCC
TAF
KGCC 262320Z 2700/2724 VRB05KT P6SM SKC
     FM270500 17012KT P6SM SKC
     FM271000 18018G28KT P6SM SKC=



000
FTUS43 KUNR 261700
TAFRAP
TAF
KRAP 261734Z 2618/2718 36013KT P6SM FEW020
     FM262200 VRB05KT P6SM SKC
     FM271000 14010KT P6SM SKC=



000
FTUS43 KUNR 261700
TAFGCC
TAF
KGCC 261734Z 2618/2718 VRB05KT P6SM -SN OVC015
      TEMPO 2618/2619 2SM -SN OVC015
     FM262000 04006KT P6SM SCT040
     FM270500 18015KT P6SM SKC=



000
FTUS43 KUNR 261700
TAFRAP
TAF
KRAP 261734Z 2618/2718 36013KT P6SM FEW020
     FM262200 VRB05KT P6SM SKC
     FM271000 14010KT P6SM SKC=



000
FTUS43 KUNR 261700 AAA
TAFGCC
TAF AMD
KGCC 261725Z 2617/2712 VRB05KT P6SM -SN OVC015
      TEMPO 2617/2619 2SM -SN OVC015
     FM262100 04006KT P6SM SCT025 BKN050
     FM270300 18012KT P6SM SKC=



000
FTUS43 KUNR 261500 AAA
TAFGCC
TAF AMD
KGCC 261508Z 2615/2712 01005KT 3SM -SN OVC015
     FM261800 04006KT P6SM SCT025 BKN050
     FM270300 18012KT P6SM SKC=



000
FTUS43 KUNR 261500 AAA
TAFGCC
TAF AMD
KGCC 261508Z 2615/2712 01005KT 3SM -SN OVC015
     FM261800 04006KT P6SM SCT025 BKN050
     FM270300 18012KT P6SM SKC=



000
FTUS43 KUNR 261500 AAA
TAFRAP
TAF AMD
KRAP 261507Z 2615/2712 01012KT P6SM -SN FEW009 OVC025
     FM261700 36008KT P6SM SCT025
     FM262000 VRB04KT P6SM SKC=



000
FTUS43 KUNR 261100
TAFGCC
TAF
KGCC 261120Z 2612/2712 01005KT 3SM -SN BKN015 OVC030
     FM261700 04006KT P6SM SCT025
     FM262100 09007KT P6SM SKC
     FM270300 18012KT P6SM SKC=



000
FTUS43 KUNR 261100
TAFRAP
TAF
KRAP 261120Z 2612/2712 36011KT P6SM -SN FEW009 OVC015
     FM261600 36017KT P6SM SCT025
     FM262000 04011KT P6SM SKC
     FM270100 14005KT P6SM SKC=



000
FTUS43 KUNR 261100
TAFGCC
TAF
KGCC 261120Z 2612/2712 01005KT 3SM -SN BKN015 OVC030
     FM261700 04006KT P6SM SCT025
     FM262100 09007KT P6SM SKC
     FM270300 18012KT P6SM SKC=



000
FTUS43 KUNR 260800 AAA
TAFGCC
TAF AMD
KGCC 260825Z 2608/2706 01010KT P6SM OVC017
     FM261600 03008KT P6SM BKN250=



000
FTUS43 KUNR 260600 AAA
TAFRAP
TAF AMD
KRAP 260643Z 2607/2706 36015KT 3SM -SN SCT010 OVC025
     FM260900 02014KT P6SM OVC015
     FM261700 03014KT P6SM BKN250=



000
FTUS43 KUNR 260600 AAA
TAFRAP
TAF AMD
KRAP 260643Z 2607/2706 36015KT 3SM -SN SCT010 OVC025
     FM260900 02014KT P6SM OVC015
     FM261700 03014KT P6SM BKN250=



000
FTUS43 KUNR 260500
TAFRAP
TAF
KRAP 260520Z 2606/2706 01010KT 5SM -SN BR SCT015 OVC025
      TEMPO 2606/2609 1SM -SN BR OVC012
     FM260900 02014KT P6SM OVC015
     FM261700 03014KT P6SM BKN250=



000
FTUS43 KUNR 260400 AAA
TAFRAP
TAF AMD
KRAP 260413Z 2604/2624 01010KT 5SM -SN BR SCT015 OVC025
      TEMPO 2604/2608 1SM -SN BR OVC012
     FM260900 02014KT P6SM OVC015
     FM261700 03014KT P6SM BKN250=



000
FTUS43 KUNR 252300
TAFGCC
TAF
KGCC 252324Z 2600/2624 36022G32KT 4SM -SN BLSN BR SCT014 OVC025
      TEMPO 2600/2604 1SM -SN OVC012
     FM260400 36014KT 4SM -SN OVC015
     FM260800 02006KT P6SM OVC015
     FM261600 03008KT P6SM BKN250=



000
FTUS43 KUNR 252300
TAFRAP
TAF
KRAP 252324Z 2600/2624 02018KT 4SM -SN BR SCT014 OVC022
      TEMPO 2600/2603 1SM -SN BR VV014
     FM260300 02015KT 5SM -SN OVC015
     FM260900 02014KT P6SM OVC015
     FM261700 03014KT P6SM BKN250=



000
FTUS43 KUNR 252300
TAFGCC
TAF
KGCC 252324Z 2600/2624 36022G32KT 4SM -SN BLSN BR SCT014 OVC025
      TEMPO 2600/2604 1SM -SN OVC012
     FM260400 36014KT 4SM -SN OVC015
     FM260800 02006KT P6SM OVC015
     FM261600 03008KT P6SM BKN250=



000
FTUS43 KUNR 252300
TAFRAP
TAF
KRAP 252324Z 2600/2624 02018KT 4SM -SN BR SCT014 OVC022
      TEMPO 2600/2603 1SM -SN BR VV014
     FM260300 02015KT 5SM -SN OVC015
     FM260900 02014KT P6SM OVC015
     FM261700 03014KT P6SM BKN250=



000
FTUS43 KUNR 252100 AAA
TAFRAP
TAF AMD
KRAP 252103Z 2521/2618 36023G33KT 6SM -SN SCT007 OVC012
      TEMPO 2521/2601 2SM -SN BLSN
     FM260100 36015G25KT 5SM -SN OVC015
     FM260900 01010KT P6SM OVC015=



000
FTUS43 KUNR 251900 AAA
TAFGCC
TAF AMD
KGCC 251902Z 2519/2618 33016G26KT P6SM SCT006 OVC012
      TEMPO 2519/2523 2SM -SN BKN006
     FM260000 36012KT 4SM -SN OVC015
     FM260800 02006KT P6SM OVC015=



000
FTUS43 KUNR 251700
TAFGCC
TAF
KGCC 251720Z 2518/2618 33016G26KT 3SM -SN SCT006 OVC012
      TEMPO 2518/2522 1/2SM SN BKN006
     FM260000 36012KT 4SM -SN OVC015
     FM260800 02006KT P6SM OVC015=



000
FTUS43 KUNR 251700
TAFRAP
TAF
KRAP 251720Z 2518/2618 36030G40KT 4SM -SN BLSN SCT007 OVC015
      TEMPO 2518/2522 1SM -SN BLSN
     FM260100 36018G28KT 5SM -SN OVC025
     FM260900 01010KT P6SM OVC025=



000
FTUS43 KUNR 251700
TAFRAP
TAF
KRAP 251720Z 2518/2618 36030G40KT 4SM -SN BLSN SCT007 OVC015
      TEMPO 2518/2522 1SM -SN BLSN
     FM260100 36018G28KT 5SM -SN OVC025
     FM260900 01010KT P6SM OVC025=



000
FTUS43 KUNR 251700
TAFGCC
TAF
KGCC 251720Z 2518/2618 33016G26KT 3SM -SN SCT006 OVC012
      TEMPO 2518/2522 1/2SM SN BKN006
     FM260000 36012KT 4SM -SN OVC015
     FM260800 02006KT P6SM OVC015=



000
FTUS43 KUNR 251400 AAA
TAFGCC
TAF AMD
KGCC 251437Z 2515/2612 33016G26KT 2SM -SN BR BKN006 OVC012
      TEMPO 2515/2518 1/2SM -SN FG
     FM252100 36014KT P6SM -SHSN OVC015
     FM260300 02007KT P6SM OVC012=



000
FTUS43 KUNR 251400 AAA
TAFRAP
TAF AMD
KRAP 251407Z 2514/2612 35025G35KT 2SM -SN BLSN SCT007 OVC011
     FM251900 36030G40KT 5SM -SHSN BLSN OVC015
     FM260100 35018G28KT P6SM OVC025
     FM260500 35011KT P6SM OVC050=



000
FTUS43 KUNR 251100
TAFGCC
TAF
KGCC 251120Z 2512/2612 33016G26KT 2SM -SN BKN006 OVC012
     FM252100 36014KT P6SM -SHSN OVC015
     FM260300 02007KT P6SM OVC012=



000
FTUS43 KUNR 251000 AAA
TAFRAP
TAF AMD
KRAP 251059Z 2511/2606 34018G28KT P6SM -SHRA FEW008 SCT022 OVC035
     FM251500 35025G35KT 1SM -SN BLSN OVC010
     FM260100 36020G30KT 5SM -SN OVC015=



000
FTUS43 KUNR 251000 AAA
TAFRAP
TAF AMD
KRAP 251059Z 2511/2606 34018G28KT P6SM -SHRA FEW008 SCT022 OVC035
     FM251500 35025G35KT 1SM -SN BLSN OVC010
     FM260100 36020G30KT 5SM -SN OVC015=



000
FTUS43 KUNR 250500 CCA
TAFRAP
TAF COR
KRAP 250556Z 2506/2606 32018KT P6SM OVC070
     FM251000 34015G25KT 5SM -SN OVC015
     FM251500 35025G35KT 1SM -SN BLSN OVC010
     FM260100 36020G30KT 5SM -SN OVC015=



000
FTUS43 KUNR 250500
TAFRAP
TAF
KRAP 250520Z 2506/2606 32012KT P6SM OVC070
     FM251000 34015G25KT 5SM -SN OVC015
     FM251500 35025G35KT 1SM -SN BLSN OVC010
     FM260100 36020G30KT 5SM -SN OVC015=



    US Dept of Commerce
    National Oceanic and Atmospheric Administration
    National Weather Service
    1325 East West Highway
    Silver Spring, MD 20910
    Page Author: NWS Internet Services Team
Disclaimer
Information Quality
Credits
Glossary
Privacy Policy
Freedom of Information Act (FOIA)
About Us
Career Opportunities